sensor_id;sensor_type;location;lat;lon;timestamp;P1;durP1;ratioP1;P2;durP2;ratioP2
74543;SDS011;63016;55.030;38.710;2022-09-19T00:01:19;14.82;;;5.65;;
74543;SDS011;63016;55.030;38.710;2022-09-19T00:03:50;14.13;;;5.85;;
74543;SDS011;63016;55.030;38.710;2022-09-19T00:06:19;13.10;;;5.57;;
74543;SDS011;63016;55.030;38.710;2022-09-19T00:08:46;13.25;;;5.03;;
74543;SDS011;63016;55.030;38.710;2022-09-19T00:11:12;13.55;;;5.43;;
74543;SDS011;63016;55.030;38.710;2022-09-19T00:13:40;9.60;;;4.88;;
74543;SDS011;63016;55.030;38.710;2022-09-19T00:16:17;14.87;;;6.10;;
74543;SDS011;63016;55.030;38.710;2022-09-19T00:18:45;15.98;;;6.07;;
74543;SDS011;63016;55.030;38.710;2022-09-19T00:21:17;11.48;;;5.40;;
74543;SDS011;63016;55.030;38.710;2022-09-19T00:23:44;15.02;;;6.15;;
74543;SDS011;63016;55.030;38.710;2022-09-19T00:26:28;14.77;;;6.13;;
74543;SDS011;63016;55.030;38.710;2022-09-19T00:28:53;12.77;;;5.80;;
74543;SDS011;63016;55.030;38.710;2022-09-19T00:31:19;12.93;;;6.28;;
74543;SDS011;63016;55.030;38.710;2022-09-19T00:33:46;13.70;;;6.63;;
74543;SDS011;63016;55.030;38.710;2022-09-19T00:36:13;11.85;;;6.20;;
74543;SDS011;63016;55.030;38.710;2022-09-19T00:38:40;15.82;;;6.97;;
74543;SDS011;63016;55.030;38.710;2022-09-19T00:41:07;14.10;;;6.55;;
74543;SDS011;63016;55.030;38.710;2022-09-19T00:46:13;13.90;;;6.88;;
74543;SDS011;63016;55.030;38.710;2022-09-19T00:48:39;15.10;;;7.20;;
74543;SDS011;63016;55.030;38.710;2022-09-19T00:51:08;12.73;;;6.75;;
74543;SDS011;63016;55.030;38.710;2022-09-19T00:53:37;19.35;;;7.93;;
74543;SDS011;63016;55.030;38.710;2022-09-19T00:56:03;15.75;;;6.55;;
74543;SDS011;63016;55.030;38.710;2022-09-19T00:58:30;15.07;;;7.38;;
74543;SDS011;63016;55.030;38.710;2022-09-19T01:00:58;13.93;;;7.20;;
74543;SDS011;63016;55.030;38.710;2022-09-19T01:03:25;16.08;;;7.47;;
74543;SDS011;63016;55.030;38.710;2022-09-19T01:06:11;19.13;;;7.88;;
74543;SDS011;63016;55.030;38.710;2022-09-19T01:28:19;16.73;;;8.70;;
74543;SDS011;63016;55.030;38.710;2022-09-19T01:31:00;18.70;;;8.30;;
74543;SDS011;63016;55.030;38.710;2022-09-19T01:36:34;17.30;;;8.77;;
74543;SDS011;63016;55.030;38.710;2022-09-19T01:39:04;17.27;;;8.27;;
74543;SDS011;63016;55.030;38.710;2022-09-19T01:41:33;15.80;;;8.00;;
74543;SDS011;63016;55.030;38.710;2022-09-19T01:44:00;14.75;;;8.00;;
74543;SDS011;63016;55.030;38.710;2022-09-19T01:46:46;13.68;;;7.70;;
74543;SDS011;63016;55.030;38.710;2022-09-19T02:01:00;15.00;;;8.13;;
74543;SDS011;63016;55.030;38.710;2022-09-19T02:03:35;12.65;;;7.30;;
74543;SDS011;63016;55.030;38.710;2022-09-19T02:06:34;14.80;;;8.25;;
74543;SDS011;63016;55.030;38.710;2022-09-19T02:11:36;16.42;;;9.00;;
74543;SDS011;63016;55.030;38.710;2022-09-19T02:14:06;15.57;;;8.90;;
74543;SDS011;63016;55.030;38.710;2022-09-19T02:16:46;21.45;;;9.45;;
74543;SDS011;63016;55.030;38.710;2022-09-19T02:19:34;17.88;;;9.70;;
74543;SDS011;63016;55.030;38.710;2022-09-19T02:22:05;17.92;;;10.80;;
74543;SDS011;63016;55.030;38.710;2022-09-19T02:24:35;20.48;;;11.00;;
74543;SDS011;63016;55.030;38.710;2022-09-19T02:27:09;20.25;;;10.98;;
74543;SDS011;63016;55.030;38.710;2022-09-19T02:29:49;23.02;;;11.73;;
74543;SDS011;63016;55.030;38.710;2022-09-19T02:32:18;18.27;;;10.95;;
74543;SDS011;63016;55.030;38.710;2022-09-19T02:34:48;17.30;;;10.88;;
74543;SDS011;63016;55.030;38.710;2022-09-19T02:37:24;20.92;;;11.93;;
74543;SDS011;63016;55.030;38.710;2022-09-19T02:42:59;14.10;;;9.50;;
74543;SDS011;63016;55.030;38.710;2022-09-19T02:45:34;15.20;;;8.93;;
74543;SDS011;63016;55.030;38.710;2022-09-19T02:48:09;10.98;;;6.75;;
74543;SDS011;63016;55.030;38.710;2022-09-19T02:51:01;7.82;;;4.78;;
74543;SDS011;63016;55.030;38.710;2022-09-19T02:53:44;6.78;;;3.67;;
74543;SDS011;63016;55.030;38.710;2022-09-19T02:56:18;7.95;;;2.60;;
74543;SDS011;63016;55.030;38.710;2022-09-19T02:59:02;4.68;;;1.88;;
74543;SDS011;63016;55.030;38.710;2022-09-19T03:01:32;2.75;;;1.33;;
74543;SDS011;63016;55.030;38.710;2022-09-19T03:04:01;3.13;;;1.10;;
74543;SDS011;63016;55.030;38.710;2022-09-19T03:09:19;2.47;;;1.02;;
74543;SDS011;63016;55.030;38.710;2022-09-19T03:11:52;2.15;;;0.88;;
74543;SDS011;63016;55.030;38.710;2022-09-19T03:14:25;1.83;;;1.08;;
74543;SDS011;63016;55.030;38.710;2022-09-19T03:16:52;1.33;;;0.80;;
74543;SDS011;63016;55.030;38.710;2022-09-19T03:19:21;4.40;;;1.00;;
74543;SDS011;63016;55.030;38.710;2022-09-19T03:21:51;2.92;;;0.90;;
74543;SDS011;63016;55.030;38.710;2022-09-19T03:24:17;1.48;;;0.95;;
74543;SDS011;63016;55.030;38.710;2022-09-19T03:26:43;2.75;;;1.00;;
74543;SDS011;63016;55.030;38.710;2022-09-19T03:29:09;1.45;;;0.90;;
74543;SDS011;63016;55.030;38.710;2022-09-19T03:31:35;1.70;;;0.77;;
74543;SDS011;63016;55.030;38.710;2022-09-19T03:34:01;2.65;;;1.00;;
74543;SDS011;63016;55.030;38.710;2022-09-19T03:36:28;2.20;;;1.00;;
74543;SDS011;63016;55.030;38.710;2022-09-19T03:39:00;3.33;;;0.98;;
74543;SDS011;63016;55.030;38.710;2022-09-19T03:41:27;4.10;;;0.90;;
74543;SDS011;63016;55.030;38.710;2022-09-19T03:43:55;2.25;;;0.85;;
74543;SDS011;63016;55.030;38.710;2022-09-19T03:46:25;3.65;;;0.90;;
74543;SDS011;63016;55.030;38.710;2022-09-19T03:48:51;2.45;;;0.80;;
74543;SDS011;63016;55.030;38.710;2022-09-19T03:51:17;5.45;;;0.90;;
74543;SDS011;63016;55.030;38.710;2022-09-19T03:53:44;1.63;;;0.88;;
74543;SDS011;63016;55.030;38.710;2022-09-19T03:56:10;2.80;;;1.10;;
74543;SDS011;63016;55.030;38.710;2022-09-19T03:58:39;4.70;;;1.13;;
74543;SDS011;63016;55.030;38.710;2022-09-19T04:01:06;2.92;;;1.00;;
74543;SDS011;63016;55.030;38.710;2022-09-19T04:03:33;2.17;;;1.08;;
74543;SDS011;63016;55.030;38.710;2022-09-19T04:06:00;4.65;;;1.08;;
74543;SDS011;63016;55.030;38.710;2022-09-19T04:08:26;3.17;;;1.10;;
74543;SDS011;63016;55.030;38.710;2022-09-19T04:10:52;5.75;;;1.23;;
74543;SDS011;63016;55.030;38.710;2022-09-19T04:13:18;5.65;;;1.10;;
74543;SDS011;63016;55.030;38.710;2022-09-19T04:15:48;2.42;;;1.20;;
74543;SDS011;63016;55.030;38.710;2022-09-19T04:18:14;2.17;;;1.10;;
74543;SDS011;63016;55.030;38.710;2022-09-19T04:20:40;2.03;;;1.15;;
74543;SDS011;63016;55.030;38.710;2022-09-19T04:23:05;3.90;;;0.80;;
74543;SDS011;63016;55.030;38.710;2022-09-19T04:25:33;1.58;;;0.60;;
74543;SDS011;63016;55.030;38.710;2022-09-19T04:28:04;3.95;;;0.60;;
74543;SDS011;63016;55.030;38.710;2022-09-19T04:30:33;2.85;;;0.68;;
74543;SDS011;63016;55.030;38.710;2022-09-19T04:33:03;3.63;;;0.50;;
74543;SDS011;63016;55.030;38.710;2022-09-19T04:35:30;6.07;;;0.60;;
74543;SDS011;63016;55.030;38.710;2022-09-19T04:38:03;0.57;;;0.57;;
74543;SDS011;63016;55.030;38.710;2022-09-19T04:40:29;7.50;;;0.40;;
74543;SDS011;63016;55.030;38.710;2022-09-19T04:42:55;2.58;;;0.40;;
74543;SDS011;63016;55.030;38.710;2022-09-19T04:45:22;0.63;;;0.40;;
74543;SDS011;63016;55.030;38.710;2022-09-19T04:47:47;3.60;;;0.50;;
74543;SDS011;63016;55.030;38.710;2022-09-19T04:50:13;8.52;;;0.50;;
74543;SDS011;63016;55.030;38.710;2022-09-19T04:52:40;4.32;;;0.40;;
74543;SDS011;63016;55.030;38.710;2022-09-19T04:55:06;2.15;;;0.40;;
74543;SDS011;63016;55.030;38.710;2022-09-19T04:57:33;0.93;;;0.43;;
74543;SDS011;63016;55.030;38.710;2022-09-19T04:59:58;2.63;;;0.40;;
74543;SDS011;63016;55.030;38.710;2022-09-19T05:02:25;0.82;;;0.40;;
74543;SDS011;63016;55.030;38.710;2022-09-19T05:04:53;1.95;;;0.50;;
74543;SDS011;63016;55.030;38.710;2022-09-19T05:07:20;2.78;;;0.60;;
74543;SDS011;63016;55.030;38.710;2022-09-19T05:09:46;1.02;;;0.60;;
74543;SDS011;63016;55.030;38.710;2022-09-19T05:12:11;3.15;;;0.70;;
74543;SDS011;63016;55.030;38.710;2022-09-19T05:14:37;4.13;;;0.68;;
74543;SDS011;63016;55.030;38.710;2022-09-19T05:17:02;1.98;;;0.55;;
74543;SDS011;63016;55.030;38.710;2022-09-19T05:19:28;2.80;;;0.55;;
74543;SDS011;63016;55.030;38.710;2022-09-19T05:21:54;6.65;;;0.57;;
74543;SDS011;63016;55.030;38.710;2022-09-19T05:24:19;1.15;;;0.43;;
74543;SDS011;63016;55.030;38.710;2022-09-19T05:26:45;4.68;;;0.35;;
74543;SDS011;63016;55.030;38.710;2022-09-19T05:29:11;5.18;;;0.50;;
74543;SDS011;63016;55.030;38.710;2022-09-19T05:31:41;3.72;;;0.50;;
74543;SDS011;63016;55.030;38.710;2022-09-19T05:34:10;1.45;;;0.40;;
74543;SDS011;63016;55.030;38.710;2022-09-19T05:36:36;1.15;;;0.40;;
74543;SDS011;63016;55.030;38.710;2022-09-19T05:39:02;1.35;;;0.50;;
74543;SDS011;63016;55.030;38.710;2022-09-19T05:41:28;4.97;;;0.32;;
74543;SDS011;63016;55.030;38.710;2022-09-19T05:43:53;2.28;;;0.30;;
74543;SDS011;63016;55.030;38.710;2022-09-19T05:46:19;0.73;;;0.30;;
74543;SDS011;63016;55.030;38.710;2022-09-19T05:48:48;2.65;;;0.50;;
74543;SDS011;63016;55.030;38.710;2022-09-19T05:51:14;5.10;;;0.35;;
74543;SDS011;63016;55.030;38.710;2022-09-19T05:53:39;3.53;;;0.40;;
74543;SDS011;63016;55.030;38.710;2022-09-19T05:56:23;3.45;;;0.50;;
74543;SDS011;63016;55.030;38.710;2022-09-19T05:58:52;6.13;;;0.50;;
74543;SDS011;63016;55.030;38.710;2022-09-19T06:01:18;0.90;;;0.30;;
74543;SDS011;63016;55.030;38.710;2022-09-19T06:03:44;1.00;;;0.30;;
74543;SDS011;63016;55.030;38.710;2022-09-19T06:06:14;4.05;;;0.30;;
74543;SDS011;63016;55.030;38.710;2022-09-19T06:08:43;4.63;;;0.40;;
74543;SDS011;63016;55.030;38.710;2022-09-19T06:11:10;2.65;;;0.30;;
74543;SDS011;63016;55.030;38.710;2022-09-19T06:13:36;2.72;;;0.20;;
74543;SDS011;63016;55.030;38.710;2022-09-19T06:16:20;2.03;;;0.40;;
74543;SDS011;63016;55.030;38.710;2022-09-19T06:18:47;5.68;;;0.60;;
74543;SDS011;63016;55.030;38.710;2022-09-19T06:21:13;1.48;;;0.28;;
74543;SDS011;63016;55.030;38.710;2022-09-19T06:23:39;2.17;;;0.20;;
74543;SDS011;63016;55.030;38.710;2022-09-19T06:26:05;4.35;;;0.30;;
74543;SDS011;63016;55.030;38.710;2022-09-19T06:28:31;2.83;;;0.30;;
74543;SDS011;63016;55.030;38.710;2022-09-19T06:31:00;1.77;;;0.30;;
74543;SDS011;63016;55.030;38.710;2022-09-19T06:33:33;4.40;;;0.30;;
74543;SDS011;63016;55.030;38.710;2022-09-19T06:35:59;0.50;;;0.30;;
74543;SDS011;63016;55.030;38.710;2022-09-19T06:38:25;3.22;;;0.45;;
74543;SDS011;63016;55.030;38.710;2022-09-19T06:40:52;2.25;;;0.30;;
74543;SDS011;63016;55.030;38.710;2022-09-19T06:43:17;1.23;;;0.20;;
74543;SDS011;63016;55.030;38.710;2022-09-19T06:45:43;2.05;;;0.25;;
74543;SDS011;63016;55.030;38.710;2022-09-19T06:48:08;1.15;;;0.20;;
74543;SDS011;63016;55.030;38.710;2022-09-19T06:50:34;3.97;;;0.38;;
74543;SDS011;63016;55.030;38.710;2022-09-19T06:53:00;1.50;;;0.40;;
74543;SDS011;63016;55.030;38.710;2022-09-19T06:55:26;2.30;;;0.40;;
74543;SDS011;63016;55.030;38.710;2022-09-19T07:00:19;2.72;;;0.30;;
74543;SDS011;63016;55.030;38.710;2022-09-19T07:02:47;1.58;;;0.20;;
74543;SDS011;63016;55.030;38.710;2022-09-19T07:05:14;6.95;;;0.63;;
74543;SDS011;63016;55.030;38.710;2022-09-19T07:07:39;1.63;;;0.50;;
74543;SDS011;63016;55.030;38.710;2022-09-19T07:10:05;2.60;;;0.20;;
74543;SDS011;63016;55.030;38.710;2022-09-19T07:12:31;1.65;;;0.20;;
74543;SDS011;63016;55.030;38.710;2022-09-19T07:14:57;2.67;;;0.20;;
74543;SDS011;63016;55.030;38.710;2022-09-19T07:17:22;2.28;;;0.20;;
74543;SDS011;63016;55.030;38.710;2022-09-19T07:19:48;6.70;;;0.20;;
74543;SDS011;63016;55.030;38.710;2022-09-19T07:22:13;4.72;;;0.20;;
74543;SDS011;63016;55.030;38.710;2022-09-19T07:24:39;0.52;;;0.10;;
74543;SDS011;63016;55.030;38.710;2022-09-19T07:27:04;0.85;;;0.20;;
74543;SDS011;63016;55.030;38.710;2022-09-19T07:29:30;0.50;;;0.10;;
74543;SDS011;63016;55.030;38.710;2022-09-19T07:31:58;5.68;;;0.22;;
74543;SDS011;63016;55.030;38.710;2022-09-19T07:34:24;3.80;;;0.20;;
74543;SDS011;63016;55.030;38.710;2022-09-19T07:36:50;3.00;;;0.20;;
74543;SDS011;63016;55.030;38.710;2022-09-19T07:39:16;5.60;;;0.30;;
74543;SDS011;63016;55.030;38.710;2022-09-19T07:41:41;5.07;;;0.50;;
74543;SDS011;63016;55.030;38.710;2022-09-19T07:44:06;1.42;;;0.60;;
74543;SDS011;63016;55.030;38.710;2022-09-19T07:46:32;1.67;;;0.65;;
74543;SDS011;63016;55.030;38.710;2022-09-19T07:48:57;1.00;;;0.40;;
74543;SDS011;63016;55.030;38.710;2022-09-19T07:51:23;1.08;;;0.20;;
74543;SDS011;63016;55.030;38.710;2022-09-19T07:53:48;2.72;;;0.10;;
74543;SDS011;63016;55.030;38.710;2022-09-19T07:56:14;1.52;;;0.20;;
74543;SDS011;63016;55.030;38.710;2022-09-19T07:58:40;0.60;;;0.20;;
74543;SDS011;63016;55.030;38.710;2022-09-19T08:01:05;6.47;;;0.28;;
74543;SDS011;63016;55.030;38.710;2022-09-19T08:03:31;4.03;;;0.30;;
74543;SDS011;63016;55.030;38.710;2022-09-19T08:05:58;3.83;;;0.28;;
74543;SDS011;63016;55.030;38.710;2022-09-19T08:08:24;2.05;;;0.20;;
74543;SDS011;63016;55.030;38.710;2022-09-19T08:10:51;6.72;;;0.50;;
74543;SDS011;63016;55.030;38.710;2022-09-19T08:13:18;1.13;;;0.40;;
74543;SDS011;63016;55.030;38.710;2022-09-19T08:15:44;7.18;;;0.30;;
74543;SDS011;63016;55.030;38.710;2022-09-19T08:18:17;1.13;;;0.50;;
74543;SDS011;63016;55.030;38.710;2022-09-19T08:20:44;6.33;;;0.47;;
74543;SDS011;63016;55.030;38.710;2022-09-19T08:23:11;0.98;;;0.40;;
74543;SDS011;63016;55.030;38.710;2022-09-19T08:25:38;1.90;;;0.35;;
74543;SDS011;63016;55.030;38.710;2022-09-19T08:28:08;6.40;;;0.40;;
74543;SDS011;63016;55.030;38.710;2022-09-19T08:30:34;1.65;;;0.40;;
74543;SDS011;63016;55.030;38.710;2022-09-19T08:33:01;5.10;;;0.28;;
74543;SDS011;63016;55.030;38.710;2022-09-19T08:35:28;7.32;;;0.40;;
74543;SDS011;63016;55.030;38.710;2022-09-19T08:37:56;4.22;;;0.32;;
74543;SDS011;63016;55.030;38.710;2022-09-19T08:48:32;1.23;;;0.33;;
74543;SDS011;63016;55.030;38.710;2022-09-19T08:54:17;7.30;;;0.40;;
74543;SDS011;63016;55.030;38.710;2022-09-19T08:56:48;3.75;;;0.30;;
74543;SDS011;63016;55.030;38.710;2022-09-19T08:59:15;3.30;;;0.30;;
74543;SDS011;63016;55.030;38.710;2022-09-19T09:01:45;3.70;;;0.30;;
74543;SDS011;63016;55.030;38.710;2022-09-19T09:15:52;3.97;;;0.57;;
74543;SDS011;63016;55.030;38.710;2022-09-19T09:23:55;1.77;;;0.45;;
74543;SDS011;63016;55.030;38.710;2022-09-19T09:26:26;7.75;;;0.60;;
74543;SDS011;63016;55.030;38.710;2022-09-19T09:31:27;0.85;;;0.30;;
74543;SDS011;63016;55.030;38.710;2022-09-19T09:33:57;6.88;;;0.47;;
74543;SDS011;63016;55.030;38.710;2022-09-19T09:37:19;4.68;;;0.30;;
74543;SDS011;63016;55.030;38.710;2022-09-19T09:39:38;0.20;;;0.20;;
74543;SDS011;63016;55.030;38.710;2022-09-19T10:01:32;2.60;;;0.57;;
74543;SDS011;63016;55.030;38.710;2022-09-19T10:06:57;5.72;;;0.50;;
74543;SDS011;63016;55.030;38.710;2022-09-19T10:09:49;6.22;;;1.00;;
74543;SDS011;63016;55.030;38.710;2022-09-19T10:12:27;7.85;;;2.83;;
74543;SDS011;63016;55.030;38.710;2022-09-19T10:15:27;8.23;;;3.33;;
74543;SDS011;63016;55.030;38.710;2022-09-19T10:18:05;11.48;;;4.75;;
74543;SDS011;63016;55.030;38.710;2022-09-19T10:20:38;9.82;;;1.98;;
74543;SDS011;63016;55.030;38.710;2022-09-19T10:23:29;8.15;;;4.07;;
74543;SDS011;63016;55.030;38.710;2022-09-19T10:26:00;10.93;;;2.00;;
74543;SDS011;63016;55.030;38.710;2022-09-19T10:31:19;12.40;;;3.00;;
74543;SDS011;63016;55.030;38.710;2022-09-19T10:33:54;7.20;;;2.03;;
74543;SDS011;63016;55.030;38.710;2022-09-19T10:36:21;17.30;;;4.50;;
74543;SDS011;63016;55.030;38.710;2022-09-19T10:38:53;7.78;;;3.35;;
74543;SDS011;63016;55.030;38.710;2022-09-19T10:41:23;10.25;;;3.38;;
74543;SDS011;63016;55.030;38.710;2022-09-19T10:44:01;9.68;;;2.88;;
74543;SDS011;63016;55.030;38.710;2022-09-19T10:46:43;8.20;;;1.67;;
74543;SDS011;63016;55.030;38.710;2022-09-19T10:49:32;9.50;;;3.08;;
74543;SDS011;63016;55.030;38.710;2022-09-19T10:52:10;17.40;;;2.38;;
74543;SDS011;63016;55.030;38.710;2022-09-19T10:54:41;8.90;;;4.72;;
74543;SDS011;63016;55.030;38.710;2022-09-19T11:00:30;5.88;;;1.60;;
74543;SDS011;63016;55.030;38.710;2022-09-19T11:02:59;11.48;;;1.85;;
74543;SDS011;63016;55.030;38.710;2022-09-19T11:05:28;60.83;;;34.30;;
74543;SDS011;63016;55.030;38.710;2022-09-19T11:07:56;48.97;;;19.75;;
74543;SDS011;63016;55.030;38.710;2022-09-19T11:13:18;26.85;;;8.10;;
74543;SDS011;63016;55.030;38.710;2022-09-19T11:24:11;25.02;;;8.05;;
74543;SDS011;63016;55.030;38.710;2022-09-19T11:35:48;5.65;;;1.52;;
74543;SDS011;63016;55.030;38.710;2022-09-19T11:41:06;7.82;;;0.80;;
74543;SDS011;63016;55.030;38.710;2022-09-19T11:46:22;17.40;;;3.97;;
74543;SDS011;63016;55.030;38.710;2022-09-19T11:52:19;6.47;;;0.80;;
74543;SDS011;63016;55.030;38.710;2022-09-19T12:10:35;7.72;;;0.77;;
74543;SDS011;63016;55.030;38.710;2022-09-19T12:16:12;3.70;;;0.30;;
74543;SDS011;63016;55.030;38.710;2022-09-19T12:19:01;6.60;;;0.45;;
74543;SDS011;63016;55.030;38.710;2022-09-19T12:24:35;3.13;;;0.40;;
74543;SDS011;63016;55.030;38.710;2022-09-19T12:29:49;4.43;;;0.40;;
74543;SDS011;63016;55.030;38.710;2022-09-19T12:32:25;6.82;;;0.50;;
74543;SDS011;63016;55.030;38.710;2022-09-19T12:38:12;5.25;;;0.40;;
74543;SDS011;63016;55.030;38.710;2022-09-19T12:40:56;10.35;;;0.40;;
74543;SDS011;63016;55.030;38.710;2022-09-19T12:52:54;2.00;;;0.30;;
74543;SDS011;63016;55.030;38.710;2022-09-19T12:55:34;6.85;;;0.40;;
74543;SDS011;63016;55.030;38.710;2022-09-19T13:00:36;8.05;;;0.30;;
74543;SDS011;63016;55.030;38.710;2022-09-19T13:05:52;2.10;;;0.22;;
74543;SDS011;63016;55.030;38.710;2022-09-19T13:08:29;4.25;;;0.30;;
74543;SDS011;63016;55.030;38.710;2022-09-19T13:13:39;2.53;;;0.30;;
74543;SDS011;63016;55.030;38.710;2022-09-19T13:16:13;1.85;;;0.25;;
74543;SDS011;63016;55.030;38.710;2022-09-19T13:18:47;2.63;;;0.30;;
74543;SDS011;63016;55.030;38.710;2022-09-19T13:24:24;1.23;;;0.40;;
74543;SDS011;63016;55.030;38.710;2022-09-19T13:27:00;3.50;;;0.22;;
74543;SDS011;63016;55.030;38.710;2022-09-19T13:42:39;4.82;;;0.30;;
74543;SDS011;63016;55.030;38.710;2022-09-19T13:47:47;8.60;;;0.40;;
74543;SDS011;63016;55.030;38.710;2022-09-19T13:50:18;2.92;;;0.40;;
74543;SDS011;63016;55.030;38.710;2022-09-19T13:52:55;7.72;;;0.40;;
74543;SDS011;63016;55.030;38.710;2022-09-19T14:03:38;1.75;;;0.30;;
74543;SDS011;63016;55.030;38.710;2022-09-19T14:11:44;2.05;;;0.22;;
74543;SDS011;63016;55.030;38.710;2022-09-19T14:19:48;4.43;;;0.30;;
74543;SDS011;63016;55.030;38.710;2022-09-19T14:30:33;1.98;;;0.32;;
74543;SDS011;63016;55.030;38.710;2022-09-19T14:35:55;5.95;;;0.47;;
74543;SDS011;63016;55.030;38.710;2022-09-19T14:41:55;3.17;;;0.30;;
74543;SDS011;63016;55.030;38.710;2022-09-19T14:44:58;1.27;;;0.22;;
74543;SDS011;63016;55.030;38.710;2022-09-19T14:47:46;0.40;;;0.20;;
74543;SDS011;63016;55.030;38.710;2022-09-19T14:50:24;10.05;;;0.40;;
74543;SDS011;63016;55.030;38.710;2022-09-19T14:52:56;3.45;;;0.28;;
74543;SDS011;63016;55.030;38.710;2022-09-19T14:55:27;4.65;;;0.30;;
74543;SDS011;63016;55.030;38.710;2022-09-19T14:57:55;10.40;;;0.28;;
74543;SDS011;63016;55.030;38.710;2022-09-19T15:00:25;4.00;;;0.40;;
74543;SDS011;63016;55.030;38.710;2022-09-19T15:02:53;5.38;;;0.25;;
74543;SDS011;63016;55.030;38.710;2022-09-19T15:05:30;1.70;;;0.25;;
74543;SDS011;63016;55.030;38.710;2022-09-19T15:11:01;2.20;;;0.20;;
74543;SDS011;63016;55.030;38.710;2022-09-19T15:13:33;2.25;;;0.20;;
74543;SDS011;63016;55.030;38.710;2022-09-19T15:16:03;0.82;;;0.20;;
74543;SDS011;63016;55.030;38.710;2022-09-19T15:18:36;6.15;;;0.30;;
74543;SDS011;63016;55.030;38.710;2022-09-19T15:21:05;5.47;;;0.30;;
74543;SDS011;63016;55.030;38.710;2022-09-19T15:23:33;1.02;;;0.20;;
74543;SDS011;63016;55.030;38.710;2022-09-19T15:26:02;5.35;;;0.35;;
74543;SDS011;63016;55.030;38.710;2022-09-19T15:28:34;7.70;;;0.60;;
74543;SDS011;63016;55.030;38.710;2022-09-19T15:31:36;6.65;;;0.30;;
74543;SDS011;63016;55.030;38.710;2022-09-19T15:36:38;6.38;;;1.00;;
74543;SDS011;63016;55.030;38.710;2022-09-19T15:39:05;2.30;;;0.20;;
74543;SDS011;63016;55.030;38.710;2022-09-19T15:41:34;0.90;;;0.30;;
74543;SDS011;63016;55.030;38.710;2022-09-19T15:44:00;5.63;;;0.20;;
74543;SDS011;63016;55.030;38.710;2022-09-19T15:51:42;3.42;;;0.20;;
74543;SDS011;63016;55.030;38.710;2022-09-19T15:54:20;4.68;;;0.20;;
74543;SDS011;63016;55.030;38.710;2022-09-19T15:56:54;3.45;;;0.30;;
74543;SDS011;63016;55.030;38.710;2022-09-19T15:59:31;3.53;;;0.50;;
74543;SDS011;63016;55.030;38.710;2022-09-19T16:02:03;3.95;;;0.30;;
74543;SDS011;63016;55.030;38.710;2022-09-19T16:04:32;2.30;;;0.20;;
74543;SDS011;63016;55.030;38.710;2022-09-19T16:06:59;3.30;;;0.93;;
74543;SDS011;63016;55.030;38.710;2022-09-19T16:22:58;4.03;;;0.40;;
74543;SDS011;63016;55.030;38.710;2022-09-19T16:26:08;5.15;;;0.40;;
74543;SDS011;63016;55.030;38.710;2022-09-19T16:28:17;2.72;;;0.30;;
74543;SDS011;63016;55.030;38.710;2022-09-19T16:30:53;3.28;;;0.20;;
74543;SDS011;63016;55.030;38.710;2022-09-19T16:33:36;1.65;;;0.30;;
74543;SDS011;63016;55.030;38.710;2022-09-19T16:36:07;1.92;;;0.30;;
74543;SDS011;63016;55.030;38.710;2022-09-19T16:38:38;1.98;;;0.20;;
74543;SDS011;63016;55.030;38.710;2022-09-19T16:41:35;4.38;;;0.20;;
74543;SDS011;63016;55.030;38.710;2022-09-19T16:46:41;2.58;;;0.20;;
74543;SDS011;63016;55.030;38.710;2022-09-19T16:49:06;1.25;;;0.30;;
74543;SDS011;63016;55.030;38.710;2022-09-19T16:51:32;2.90;;;0.20;;
74543;SDS011;63016;55.030;38.710;2022-09-19T16:53:58;1.80;;;0.20;;
74543;SDS011;63016;55.030;38.710;2022-09-19T16:56:26;3.60;;;0.20;;
74543;SDS011;63016;55.030;38.710;2022-09-19T16:58:51;4.85;;;0.20;;
74543;SDS011;63016;55.030;38.710;2022-09-19T17:01:17;2.20;;;0.35;;
74543;SDS011;63016;55.030;38.710;2022-09-19T17:03:42;3.28;;;0.20;;
74543;SDS011;63016;55.030;38.710;2022-09-19T17:06:09;3.30;;;0.20;;
74543;SDS011;63016;55.030;38.710;2022-09-19T17:08:38;5.03;;;0.30;;
74543;SDS011;63016;55.030;38.710;2022-09-19T17:11:04;0.22;;;0.20;;
74543;SDS011;63016;55.030;38.710;2022-09-19T17:13:30;0.63;;;0.22;;
74543;SDS011;63016;55.030;38.710;2022-09-19T17:15:56;1.98;;;0.10;;
74543;SDS011;63016;55.030;38.710;2022-09-19T17:18:29;5.30;;;0.22;;
74543;SDS011;63016;55.030;38.710;2022-09-19T17:20:57;1.42;;;0.20;;
74543;SDS011;63016;55.030;38.710;2022-09-19T17:23:24;4.60;;;0.30;;
74543;SDS011;63016;55.030;38.710;2022-09-19T17:25:52;3.78;;;0.13;;
74543;SDS011;63016;55.030;38.710;2022-09-19T17:28:20;4.70;;;0.30;;
74543;SDS011;63016;55.030;38.710;2022-09-19T17:30:49;2.13;;;0.15;;
74543;SDS011;63016;55.030;38.710;2022-09-19T17:33:15;1.17;;;0.32;;
74543;SDS011;63016;55.030;38.710;2022-09-19T17:35:45;5.05;;;0.30;;
74543;SDS011;63016;55.030;38.710;2022-09-19T17:38:11;0.85;;;0.20;;
74543;SDS011;63016;55.030;38.710;2022-09-19T17:40:37;2.10;;;0.20;;
74543;SDS011;63016;55.030;38.710;2022-09-19T17:43:06;2.03;;;0.20;;
74543;SDS011;63016;55.030;38.710;2022-09-19T17:45:34;3.60;;;0.20;;
74543;SDS011;63016;55.030;38.710;2022-09-19T17:48:01;3.03;;;0.20;;
74543;SDS011;63016;55.030;38.710;2022-09-19T17:50:27;2.65;;;0.25;;
74543;SDS011;63016;55.030;38.710;2022-09-19T17:52:55;7.75;;;0.40;;
74543;SDS011;63016;55.030;38.710;2022-09-19T17:55:21;2.28;;;0.20;;
74543;SDS011;63016;55.030;38.710;2022-09-19T17:57:48;4.18;;;0.40;;
74543;SDS011;63016;55.030;38.710;2022-09-19T18:00:15;1.48;;;0.20;;
74543;SDS011;63016;55.030;38.710;2022-09-19T18:02:41;4.57;;;0.30;;
74543;SDS011;63016;55.030;38.710;2022-09-19T18:05:26;6.65;;;0.43;;
74543;SDS011;63016;55.030;38.710;2022-09-19T18:07:52;1.08;;;0.25;;
74543;SDS011;63016;55.030;38.710;2022-09-19T18:10:26;1.05;;;0.32;;
74543;SDS011;63016;55.030;38.710;2022-09-19T18:12:53;5.05;;;0.40;;
74543;SDS011;63016;55.030;38.710;2022-09-19T18:15:23;5.03;;;0.55;;
74543;SDS011;63016;55.030;38.710;2022-09-19T18:17:51;2.42;;;0.30;;
74543;SDS011;63016;55.030;38.710;2022-09-19T18:20:17;3.55;;;0.20;;
74543;SDS011;63016;55.030;38.710;2022-09-19T18:22:42;0.17;;;0.15;;
74543;SDS011;63016;55.030;38.710;2022-09-19T18:25:08;4.18;;;0.40;;
74543;SDS011;63016;55.030;38.710;2022-09-19T18:27:40;2.42;;;0.30;;
74543;SDS011;63016;55.030;38.710;2022-09-19T18:30:06;8.30;;;0.80;;
74543;SDS011;63016;55.030;38.710;2022-09-19T18:32:33;3.95;;;0.28;;
74543;SDS011;63016;55.030;38.710;2022-09-19T18:34:59;4.88;;;0.38;;
74543;SDS011;63016;55.030;38.710;2022-09-19T18:37:26;2.63;;;0.30;;
74543;SDS011;63016;55.030;38.710;2022-09-19T18:39:51;0.50;;;0.20;;
74543;SDS011;63016;55.030;38.710;2022-09-19T18:42:17;3.08;;;0.45;;
74543;SDS011;63016;55.030;38.710;2022-09-19T18:44:43;1.92;;;0.25;;
74543;SDS011;63016;55.030;38.710;2022-09-19T18:47:08;4.13;;;0.65;;
74543;SDS011;63016;55.030;38.710;2022-09-19T18:49:34;3.60;;;0.20;;
74543;SDS011;63016;55.030;38.710;2022-09-19T18:52:00;2.65;;;0.30;;
74543;SDS011;63016;55.030;38.710;2022-09-19T18:54:26;4.88;;;0.30;;
74543;SDS011;63016;55.030;38.710;2022-09-19T18:56:54;2.80;;;0.30;;
74543;SDS011;63016;55.030;38.710;2022-09-19T18:59:21;4.35;;;0.32;;
74543;SDS011;63016;55.030;38.710;2022-09-19T19:01:47;3.35;;;0.30;;
74543;SDS011;63016;55.030;38.710;2022-09-19T19:04:13;4.40;;;0.32;;
74543;SDS011;63016;55.030;38.710;2022-09-19T19:06:39;0.30;;;0.30;;
74543;SDS011;63016;55.030;38.710;2022-09-19T19:09:04;1.77;;;0.30;;